sensor_id;sensor_type;location;lat;lon;timestamp;temperature;humidity
18252;DHT22;26917;52.328;20.878;2023-04-06T00:00:36;1.50;93.40
18252;DHT22;26917;52.328;20.878;2023-04-06T00:03:04;1.40;93.30
18252;DHT22;26917;52.328;20.878;2023-04-06T00:05:33;1.40;93.40
18252;DHT22;26917;52.328;20.878;2023-04-06T00:08:03;1.40;93.40
18252;DHT22;26917;52.328;20.878;2023-04-06T00:10:32;1.40;93.60
18252;DHT22;26917;52.328;20.878;2023-04-06T00:13:00;1.40;93.70
18252;DHT22;26917;52.328;20.878;2023-04-06T00:15:30;1.40;93.50
18252;DHT22;26917;52.328;20.878;2023-04-06T00:17:58;1.40;93.50
18252;DHT22;26917;52.328;20.878;2023-04-06T00:20:27;1.40;93.60
18252;DHT22;26917;52.328;20.878;2023-04-06T00:22:56;1.40;93.10
18252;DHT22;26917;52.328;20.878;2023-04-06T00:25:24;1.50;93.70
18252;DHT22;26917;52.328;20.878;2023-04-06T00:27:53;1.40;93.00
18252;DHT22;26917;52.328;20.878;2023-04-06T00:30:21;1.40;93.90
18252;DHT22;26917;52.328;20.878;2023-04-06T00:32:51;1.40;93.90
18252;DHT22;26917;52.328;20.878;2023-04-06T00:35:20;1.40;94.20
18252;DHT22;26917;52.328;20.878;2023-04-06T00:37:49;1.40;94.40
18252;DHT22;26917;52.328;20.878;2023-04-06T00:40:18;1.50;94.50
18252;DHT22;26917;52.328;20.878;2023-04-06T00:42:46;1.50;94.50
18252;DHT22;26917;52.328;20.878;2023-04-06T00:45:15;1.40;94.60
18252;DHT22;26917;52.328;20.878;2023-04-06T00:47:44;1.40;94.80
18252;DHT22;26917;52.328;20.878;2023-04-06T00:50:14;1.40;94.90
18252;DHT22;26917;52.328;20.878;2023-04-06T00:52:43;1.40;95.20
18252;DHT22;26917;52.328;20.878;2023-04-06T00:55:12;1.40;95.10
18252;DHT22;26917;52.328;20.878;2023-04-06T00:57:42;1.30;95.40
18252;DHT22;26917;52.328;20.878;2023-04-06T01:00:12;1.20;95.30
18252;DHT22;26917;52.328;20.878;2023-04-06T01:02:43;1.30;95.60
18252;DHT22;26917;52.328;20.878;2023-04-06T01:05:18;1.20;95.50
18252;DHT22;26917;52.328;20.878;2023-04-06T01:07:53;1.20;95.60
18252;DHT22;26917;52.328;20.878;2023-04-06T01:10:27;1.30;95.90
18252;DHT22;26917;52.328;20.878;2023-04-06T01:13:02;1.30;95.50
18252;DHT22;26917;52.328;20.878;2023-04-06T01:15:51;1.30;95.70
18252;DHT22;26917;52.328;20.878;2023-04-06T01:18:32;1.20;95.60
18252;DHT22;26917;52.328;20.878;2023-04-06T01:21:15;1.20;95.70
18252;DHT22;26917;52.328;20.878;2023-04-06T01:23:59;1.20;95.70
18252;DHT22;26917;52.328;20.878;2023-04-06T01:26:37;1.20;95.90
18252;DHT22;26917;52.328;20.878;2023-04-06T01:29:08;1.20;96.00
18252;DHT22;26917;52.328;20.878;2023-04-06T01:31:37;1.20;95.80
18252;DHT22;26917;52.328;20.878;2023-04-06T01:34:06;1.10;95.70
18252;DHT22;26917;52.328;20.878;2023-04-06T01:36:35;1.10;95.90
18252;DHT22;26917;52.328;20.878;2023-04-06T01:39:20;1.10;95.90
18252;DHT22;26917;52.328;20.878;2023-04-06T01:41:48;1.00;95.80
18252;DHT22;26917;52.328;20.878;2023-04-06T01:44:19;1.00;95.90
18252;DHT22;26917;52.328;20.878;2023-04-06T01:46:55;1.00;95.90
18252;DHT22;26917;52.328;20.878;2023-04-06T01:49:24;1.00;95.80
18252;DHT22;26917;52.328;20.878;2023-04-06T01:51:55;1.00;96.10
18252;DHT22;26917;52.328;20.878;2023-04-06T01:54:25;0.90;96.20
18252;DHT22;26917;52.328;20.878;2023-04-06T01:57:07;1.00;96.40
18252;DHT22;26917;52.328;20.878;2023-04-06T01:59:46;1.00;96.60
18252;DHT22;26917;52.328;20.878;2023-04-06T02:02:33;0.90;96.40
18252;DHT22;26917;52.328;20.878;2023-04-06T02:05:07;0.90;96.40
18252;DHT22;26917;52.328;20.878;2023-04-06T02:07:36;1.00;96.50
18252;DHT22;26917;52.328;20.878;2023-04-06T02:10:12;0.90;96.50
18252;DHT22;26917;52.328;20.878;2023-04-06T02:12:42;0.90;96.60
18252;DHT22;26917;52.328;20.878;2023-04-06T02:15:15;0.90;96.90
18252;DHT22;26917;52.328;20.878;2023-04-06T02:17:43;0.90;96.90
18252;DHT22;26917;52.328;20.878;2023-04-06T02:20:12;0.90;96.90
18252;DHT22;26917;52.328;20.878;2023-04-06T02:22:40;0.90;96.90
18252;DHT22;26917;52.328;20.878;2023-04-06T02:25:10;0.90;96.90
18252;DHT22;26917;52.328;20.878;2023-04-06T02:27:39;0.80;96.90
18252;DHT22;26917;52.328;20.878;2023-04-06T02:30:08;0.80;96.90
18252;DHT22;26917;52.328;20.878;2023-04-06T02:32:37;0.90;97.20
18252;DHT22;26917;52.328;20.878;2023-04-06T02:35:06;0.90;97.20
18252;DHT22;26917;52.328;20.878;2023-04-06T02:37:35;0.90;97.20
18252;DHT22;26917;52.328;20.878;2023-04-06T02:40:04;0.90;97.20
18252;DHT22;26917;52.328;20.878;2023-04-06T02:42:34;0.90;97.20
18252;DHT22;26917;52.328;20.878;2023-04-06T02:45:05;0.90;97.10
18252;DHT22;26917;52.328;20.878;2023-04-06T02:47:41;0.90;97.30
18252;DHT22;26917;52.328;20.878;2023-04-06T02:50:12;0.90;97.30
18252;DHT22;26917;52.328;20.878;2023-04-06T02:52:48;0.90;97.30
18252;DHT22;26917;52.328;20.878;2023-04-06T02:55:17;0.90;97.50
18252;DHT22;26917;52.328;20.878;2023-04-06T02:57:50;0.90;97.50
18252;DHT22;26917;52.328;20.878;2023-04-06T03:00:23;0.90;97.50
18252;DHT22;26917;52.328;20.878;2023-04-06T03:02:51;1.00;97.50
18252;DHT22;26917;52.328;20.878;2023-04-06T03:05:21;1.00;97.50
18252;DHT22;26917;52.328;20.878;2023-04-06T03:07:50;1.00;97.30
18252;DHT22;26917;52.328;20.878;2023-04-06T03:10:28;1.00;97.30
18252;DHT22;26917;52.328;20.878;2023-04-06T03:12:58;1.00;97.20
18252;DHT22;26917;52.328;20.878;2023-04-06T03:15:48;0.90;97.00
18252;DHT22;26917;52.328;20.878;2023-04-06T03:18:21;0.90;97.10
18252;DHT22;26917;52.328;20.878;2023-04-06T03:20:51;0.90;97.10
18252;DHT22;26917;52.328;20.878;2023-04-06T03:23:25;0.80;97.20
18252;DHT22;26917;52.328;20.878;2023-04-06T03:25:58;0.80;97.20
18252;DHT22;26917;52.328;20.878;2023-04-06T03:28:28;0.70;97.30
18252;DHT22;26917;52.328;20.878;2023-04-06T03:31:02;0.70;97.30
18252;DHT22;26917;52.328;20.878;2023-04-06T03:33:42;0.10;97.20
18252;DHT22;26917;52.328;20.878;2023-04-06T03:36:16;0.70;97.40
18252;DHT22;26917;52.328;20.878;2023-04-06T03:38:45;0.60;97.30
18252;DHT22;26917;52.328;20.878;2023-04-06T03:41:14;0.60;97.40
18252;DHT22;26917;52.328;20.878;2023-04-06T03:43:53;0.60;97.50
18252;DHT22;26917;52.328;20.878;2023-04-06T03:46:21;0.60;97.90
18252;DHT22;26917;52.328;20.878;2023-04-06T03:48:53;0.60;97.60
18252;DHT22;26917;52.328;20.878;2023-04-06T03:51:23;0.60;97.80
18252;DHT22;26917;52.328;20.878;2023-04-06T03:53:52;0.60;97.80
18252;DHT22;26917;52.328;20.878;2023-04-06T03:56:20;0.60;97.90
18252;DHT22;26917;52.328;20.878;2023-04-06T03:58:49;0.60;98.00
18252;DHT22;26917;52.328;20.878;2023-04-06T04:01:22;0.50;98.10
18252;DHT22;26917;52.328;20.878;2023-04-06T04:03:50;0.50;98.20
18252;DHT22;26917;52.328;20.878;2023-04-06T04:06:19;0.50;98.40
18252;DHT22;26917;52.328;20.878;2023-04-06T04:08:48;0.50;98.40
18252;DHT22;26917;52.328;20.878;2023-04-06T04:11:16;0.60;98.40
18252;DHT22;26917;52.328;20.878;2023-04-06T04:13:49;0.50;98.40
18252;DHT22;26917;52.328;20.878;2023-04-06T04:16:18;0.50;98.40
18252;DHT22;26917;52.328;20.878;2023-04-06T04:18:48;0.60;98.50
18252;DHT22;26917;52.328;20.878;2023-04-06T04:21:17;0.60;98.40
18252;DHT22;26917;52.328;20.878;2023-04-06T04:23:46;0.60;98.60
18252;DHT22;26917;52.328;20.878;2023-04-06T04:26:16;0.70;98.90
18252;DHT22;26917;52.328;20.878;2023-04-06T04:28:46;0.70;98.50
18252;DHT22;26917;52.328;20.878;2023-04-06T04:31:14;0.80;98.40
18252;DHT22;26917;52.328;20.878;2023-04-06T04:33:53;0.80;98.40
18252;DHT22;26917;52.328;20.878;2023-04-06T04:36:27;0.80;98.20
18252;DHT22;26917;52.328;20.878;2023-04-06T04:38:58;0.80;98.20
18252;DHT22;26917;52.328;20.878;2023-04-06T04:41:31;0.80;97.90
18252;DHT22;26917;52.328;20.878;2023-04-06T04:44:00;0.80;98.00
18252;DHT22;26917;52.328;20.878;2023-04-06T04:46:29;0.80;97.90
18252;DHT22;26917;52.328;20.878;2023-04-06T04:49:00;0.80;97.80
18252;DHT22;26917;52.328;20.878;2023-04-06T04:51:30;0.80;97.70
18252;DHT22;26917;52.328;20.878;2023-04-06T04:54:09;0.80;97.90
18252;DHT22;26917;52.328;20.878;2023-04-06T04:56:39;0.80;97.70
18252;DHT22;26917;52.328;20.878;2023-04-06T04:59:19;0.90;97.90
18252;DHT22;26917;52.328;20.878;2023-04-06T05:01:54;0.90;97.90
18252;DHT22;26917;52.328;20.878;2023-04-06T05:04:33;1.00;97.80
18252;DHT22;26917;52.328;20.878;2023-04-06T05:07:04;1.10;97.70
18252;DHT22;26917;52.328;20.878;2023-04-06T05:09:35;1.10;97.40
18252;DHT22;26917;52.328;20.878;2023-04-06T05:12:04;1.20;97.40
18252;DHT22;26917;52.328;20.878;2023-04-06T05:14:38;1.20;97.30
18252;DHT22;26917;52.328;20.878;2023-04-06T05:17:13;1.30;97.40
18252;DHT22;26917;52.328;20.878;2023-04-06T05:19:44;1.40;97.20
18252;DHT22;26917;52.328;20.878;2023-04-06T05:22:15;1.50;97.10
18252;DHT22;26917;52.328;20.878;2023-04-06T05:24:50;1.50;96.60
18252;DHT22;26917;52.328;20.878;2023-04-06T05:27:19;1.60;96.90
18252;DHT22;26917;52.328;20.878;2023-04-06T05:29:48;1.60;96.80
18252;DHT22;26917;52.328;20.878;2023-04-06T05:32:17;1.60;96.90
18252;DHT22;26917;52.328;20.878;2023-04-06T05:34:54;1.50;96.60
18252;DHT22;26917;52.328;20.878;2023-04-06T05:37:23;1.50;96.80
18252;DHT22;26917;52.328;20.878;2023-04-06T05:39:52;1.60;97.00
18252;DHT22;26917;52.328;20.878;2023-04-06T05:42:22;1.60;96.90
18252;DHT22;26917;52.328;20.878;2023-04-06T05:44:55;1.60;96.90
18252;DHT22;26917;52.328;20.878;2023-04-06T05:47:23;1.70;96.40
18252;DHT22;26917;52.328;20.878;2023-04-06T05:50:03;1.70;96.50
18252;DHT22;26917;52.328;20.878;2023-04-06T05:52:35;1.80;96.50
18252;DHT22;26917;52.328;20.878;2023-04-06T05:55:04;2.00;96.60
18252;DHT22;26917;52.328;20.878;2023-04-06T05:57:36;2.10;96.30
18252;DHT22;26917;52.328;20.878;2023-04-06T06:00:08;2.30;96.00
18252;DHT22;26917;52.328;20.878;2023-04-06T06:02:48;2.40;95.70
18252;DHT22;26917;52.328;20.878;2023-04-06T06:05:22;2.60;95.40
18252;DHT22;26917;52.328;20.878;2023-04-06T06:07:52;2.80;95.00
18252;DHT22;26917;52.328;20.878;2023-04-06T06:10:20;3.00;94.70
18252;DHT22;26917;52.328;20.878;2023-04-06T06:12:53;3.10;94.20
18252;DHT22;26917;52.328;20.878;2023-04-06T06:15:22;3.00;93.40
18252;DHT22;26917;52.328;20.878;2023-04-06T06:17:51;3.00;93.60
18252;DHT22;26917;52.328;20.878;2023-04-06T06:20:22;3.10;94.00
18252;DHT22;26917;52.328;20.878;2023-04-06T06:22:51;3.00;93.70
18252;DHT22;26917;52.328;20.878;2023-04-06T06:25:21;2.90;93.70
18252;DHT22;26917;52.328;20.878;2023-04-06T06:27:51;2.90;93.50
18252;DHT22;26917;52.328;20.878;2023-04-06T06:30:25;2.90;93.50
18252;DHT22;26917;52.328;20.878;2023-04-06T06:32:54;2.90;93.50
18252;DHT22;26917;52.328;20.878;2023-04-06T06:35:25;3.00;94.10
18252;DHT22;26917;52.328;20.878;2023-04-06T06:37:53;3.10;93.90
18252;DHT22;26917;52.328;20.878;2023-04-06T06:40:25;3.20;93.60
18252;DHT22;26917;52.328;20.878;2023-04-06T06:42:55;3.30;93.70
18252;DHT22;26917;52.328;20.878;2023-04-06T06:45:30;3.30;93.20
18252;DHT22;26917;52.328;20.878;2023-04-06T06:48:00;3.40;93.10
18252;DHT22;26917;52.328;20.878;2023-04-06T06:50:30;3.50;92.80
18252;DHT22;26917;52.328;20.878;2023-04-06T06:52:59;3.50;92.40
18252;DHT22;26917;52.328;20.878;2023-04-06T06:55:27;3.60;92.60
18252;DHT22;26917;52.328;20.878;2023-04-06T06:57:56;3.70;92.80
18252;DHT22;26917;52.328;20.878;2023-04-06T07:00:24;3.80;92.70
18252;DHT22;26917;52.328;20.878;2023-04-06T07:02:53;3.80;92.10
18252;DHT22;26917;52.328;20.878;2023-04-06T07:05:22;3.70;92.00
18252;DHT22;26917;52.328;20.878;2023-04-06T07:07:58;3.70;92.20
18252;DHT22;26917;52.328;20.878;2023-04-06T07:10:27;3.70;92.10
18252;DHT22;26917;52.328;20.878;2023-04-06T07:12:55;3.70;91.50
18252;DHT22;26917;52.328;20.878;2023-04-06T07:15:30;3.70;91.70
18252;DHT22;26917;52.328;20.878;2023-04-06T07:18:01;3.70;91.80
18252;DHT22;26917;52.328;20.878;2023-04-06T07:20:30;3.50;91.60
18252;DHT22;26917;52.328;20.878;2023-04-06T07:23:00;3.80;91.50
18252;DHT22;26917;52.328;20.878;2023-04-06T07:25:29;3.80;91.70
18252;DHT22;26917;52.328;20.878;2023-04-06T07:27:58;3.80;91.40
18252;DHT22;26917;52.328;20.878;2023-04-06T07:30:32;3.20;91.00
18252;DHT22;26917;52.328;20.878;2023-04-06T07:33:07;4.10;91.30
18252;DHT22;26917;52.328;20.878;2023-04-06T07:35:36;4.30;91.80
18252;DHT22;26917;52.328;20.878;2023-04-06T07:38:35;4.40;91.40
18252;DHT22;26917;52.328;20.878;2023-04-06T07:41:03;4.50;91.30
18252;DHT22;26917;52.328;20.878;2023-04-06T07:43:32;4.50;90.70
18252;DHT22;26917;52.328;20.878;2023-04-06T07:46:01;4.40;91.00
18252;DHT22;26917;52.328;20.878;2023-04-06T07:48:29;4.30;90.50
18252;DHT22;26917;52.328;20.878;2023-04-06T07:51:02;4.30;90.70
18252;DHT22;26917;52.328;20.878;2023-04-06T07:53:32;4.40;91.20
18252;DHT22;26917;52.328;20.878;2023-04-06T07:56:02;4.20;90.70
18252;DHT22;26917;52.328;20.878;2023-04-06T07:58:31;4.30;91.10
18252;DHT22;26917;52.328;20.878;2023-04-06T08:01:00;4.30;91.00
18252;DHT22;26917;52.328;20.878;2023-04-06T08:03:29;4.30;91.20
18252;DHT22;26917;52.328;20.878;2023-04-06T08:05:58;4.40;91.30
18252;DHT22;26917;52.328;20.878;2023-04-06T08:08:26;4.60;91.60
18252;DHT22;26917;52.328;20.878;2023-04-06T08:10:55;4.60;91.40
18252;DHT22;26917;52.328;20.878;2023-04-06T08:13:31;4.60;90.90
18252;DHT22;26917;52.328;20.878;2023-04-06T08:16:00;4.70;91.40
18252;DHT22;26917;52.328;20.878;2023-04-06T08:18:29;4.70;91.30
18252;DHT22;26917;52.328;20.878;2023-04-06T08:20:57;4.70;90.90
18252;DHT22;26917;52.328;20.878;2023-04-06T08:23:26;4.80;91.00
18252;DHT22;26917;52.328;20.878;2023-04-06T08:25:54;4.90;90.70
18252;DHT22;26917;52.328;20.878;2023-04-06T08:28:23;4.90;91.40
18252;DHT22;26917;52.328;20.878;2023-04-06T08:30:54;4.90;91.40
18252;DHT22;26917;52.328;20.878;2023-04-06T08:33:22;4.70;91.20
18252;DHT22;26917;52.328;20.878;2023-04-06T08:35:51;4.60;91.80
18252;DHT22;26917;52.328;20.878;2023-04-06T08:38:20;4.50;92.40
18252;DHT22;26917;52.328;20.878;2023-04-06T08:40:48;4.60;92.50
18252;DHT22;26917;52.328;20.878;2023-04-06T08:43:20;4.60;92.60
18252;DHT22;26917;52.328;20.878;2023-04-06T08:45:50;4.60;92.70
18252;DHT22;26917;52.328;20.878;2023-04-06T08:48:21;4.60;93.10
18252;DHT22;26917;52.328;20.878;2023-04-06T08:50:51;4.50;93.70
18252;DHT22;26917;52.328;20.878;2023-04-06T08:53:21;4.60;93.60
18252;DHT22;26917;52.328;20.878;2023-04-06T08:55:50;4.80;94.10
18252;DHT22;26917;52.328;20.878;2023-04-06T08:58:19;4.70;94.10
18252;DHT22;26917;52.328;20.878;2023-04-06T09:01:07;4.70;93.90
18252;DHT22;26917;52.328;20.878;2023-04-06T09:03:39;4.70;94.50
18252;DHT22;26917;52.328;20.878;2023-04-06T09:06:09;4.60;94.50
18252;DHT22;26917;52.328;20.878;2023-04-06T09:08:39;4.60;94.90
18252;DHT22;26917;52.328;20.878;2023-04-06T09:11:11;4.60;95.10
18252;DHT22;26917;52.328;20.878;2023-04-06T09:13:47;4.50;95.00
18252;DHT22;26917;52.328;20.878;2023-04-06T09:16:16;4.40;95.00
18252;DHT22;26917;52.328;20.878;2023-04-06T09:18:47;4.40;95.30
18252;DHT22;26917;52.328;20.878;2023-04-06T09:21:18;4.50;95.00
18252;DHT22;26917;52.328;20.878;2023-04-06T09:23:58;4.40;94.90
18252;DHT22;26917;52.328;20.878;2023-04-06T09:26:29;4.40;95.00
18252;DHT22;26917;52.328;20.878;2023-04-06T09:29:00;4.40;95.60
18252;DHT22;26917;52.328;20.878;2023-04-06T09:31:31;4.40;95.60
18252;DHT22;26917;52.328;20.878;2023-04-06T09:34:02;4.40;95.30
18252;DHT22;26917;52.328;20.878;2023-04-06T09:36:31;4.30;95.40
18252;DHT22;26917;52.328;20.878;2023-04-06T09:39:07;4.30;95.30
18252;DHT22;26917;52.328;20.878;2023-04-06T09:41:36;4.20;95.60
18252;DHT22;26917;52.328;20.878;2023-04-06T09:44:05;4.20;96.00
18252;DHT22;26917;52.328;20.878;2023-04-06T09:46:39;4.10;96.00
18252;DHT22;26917;52.328;20.878;2023-04-06T09:49:28;4.00;95.80
18252;DHT22;26917;52.328;20.878;2023-04-06T09:52:00;4.00;96.20
18252;DHT22;26917;52.328;20.878;2023-04-06T09:54:30;3.90;96.50
18252;DHT22;26917;52.328;20.878;2023-04-06T09:57:07;3.80;97.30
18252;DHT22;26917;52.328;20.878;2023-04-06T09:59:44;3.60;97.70
18252;DHT22;26917;52.328;20.878;2023-04-06T10:02:24;3.50;98.40
18252;DHT22;26917;52.328;20.878;2023-04-06T10:04:59;3.50;99.40
18252;DHT22;26917;52.328;20.878;2023-04-06T10:07:28;3.50;99.30
18252;DHT22;26917;52.328;20.878;2023-04-06T10:09:59;3.40;99.50
18252;DHT22;26917;52.328;20.878;2023-04-06T10:12:28;3.50;99.30
18252;DHT22;26917;52.328;20.878;2023-04-06T10:14:57;3.60;99.20
18252;DHT22;26917;52.328;20.878;2023-04-06T10:17:26;3.70;99.50
18252;DHT22;26917;52.328;20.878;2023-04-06T10:20:06;3.70;99.00
18252;DHT22;26917;52.328;20.878;2023-04-06T10:22:38;3.70;99.20
18252;DHT22;26917;52.328;20.878;2023-04-06T10:25:08;3.70;99.20
18252;DHT22;26917;52.328;20.878;2023-04-06T10:27:36;3.80;99.40
18252;DHT22;26917;52.328;20.878;2023-04-06T10:30:06;3.80;98.50
18252;DHT22;26917;52.328;20.878;2023-04-06T10:32:36;4.00;98.50
18252;DHT22;26917;52.328;20.878;2023-04-06T10:35:07;4.10;98.20
18252;DHT22;26917;52.328;20.878;2023-04-06T10:37:52;4.10;97.50
18252;DHT22;26917;52.328;20.878;2023-04-06T10:40:23;3.90;97.60
18252;DHT22;26917;52.328;20.878;2023-04-06T10:42:54;3.80;98.60
18252;DHT22;26917;52.328;20.878;2023-04-06T10:45:24;3.70;99.30
18252;DHT22;26917;52.328;20.878;2023-04-06T10:47:53;3.70;99.50
18252;DHT22;26917;52.328;20.878;2023-04-06T10:50:24;3.70;99.90
18252;DHT22;26917;52.328;20.878;2023-04-06T10:52:59;3.60;99.90
18252;DHT22;26917;52.328;20.878;2023-04-06T10:55:29;3.60;99.90
18252;DHT22;26917;52.328;20.878;2023-04-06T10:57:58;3.50;99.90
18252;DHT22;26917;52.328;20.878;2023-04-06T11:00:27;3.40;99.90
18252;DHT22;26917;52.328;20.878;2023-04-06T11:03:15;3.20;99.90
18252;DHT22;26917;52.328;20.878;2023-04-06T11:05:47;3.00;99.90
18252;DHT22;26917;52.328;20.878;2023-04-06T11:08:29;3.00;99.90
18252;DHT22;26917;52.328;20.878;2023-04-06T11:11:05;3.00;99.90
18252;DHT22;26917;52.328;20.878;2023-04-06T11:13:40;3.00;99.90
18252;DHT22;26917;52.328;20.878;2023-04-06T11:16:18;3.10;99.90
18252;DHT22;26917;52.328;20.878;2023-04-06T11:18:49;3.20;99.90
18252;DHT22;26917;52.328;20.878;2023-04-06T11:21:20;3.30;99.90
18252;DHT22;26917;52.328;20.878;2023-04-06T11:24:07;3.30;99.90
18252;DHT22;26917;52.328;20.878;2023-04-06T11:26:38;3.10;99.90
18252;DHT22;26917;52.328;20.878;2023-04-06T11:29:07;3.40;99.90
18252;DHT22;26917;52.328;20.878;2023-04-06T11:31:44;3.40;99.90
18252;DHT22;26917;52.328;20.878;2023-04-06T11:34:16;3.50;99.90
18252;DHT22;26917;52.328;20.878;2023-04-06T11:36:48;3.40;99.90
18252;DHT22;26917;52.328;20.878;2023-04-06T11:39:19;3.40;99.90
18252;DHT22;26917;52.328;20.878;2023-04-06T11:41:48;3.30;99.90
18252;DHT22;26917;52.328;20.878;2023-04-06T11:44:28;3.20;99.90
18252;DHT22;26917;52.328;20.878;2023-04-06T11:46:58;3.20;99.90
18252;DHT22;26917;52.328;20.878;2023-04-06T11:49:27;3.20;99.90
18252;DHT22;26917;52.328;20.878;2023-04-06T11:52:01;3.30;99.90
18252;DHT22;26917;52.328;20.878;2023-04-06T11:54:30;3.40;99.90
18252;DHT22;26917;52.328;20.878;2023-04-06T11:56:59;3.40;99.90
18252;DHT22;26917;52.328;20.878;2023-04-06T11:59:28;3.50;99.90
18252;DHT22;26917;52.328;20.878;2023-04-06T12:01:57;3.50;99.90
18252;DHT22;26917;52.328;20.878;2023-04-06T12:04:25;3.40;99.90
18252;DHT22;26917;52.328;20.878;2023-04-06T12:06:54;3.40;99.90
18252;DHT22;26917;52.328;20.878;2023-04-06T12:09:24;3.40;99.90
18252;DHT22;26917;52.328;20.878;2023-04-06T12:11:53;3.40;99.90
18252;DHT22;26917;52.328;20.878;2023-04-06T12:14:23;3.50;99.90
18252;DHT22;26917;52.328;20.878;2023-04-06T12:16:51;3.60;99.90
18252;DHT22;26917;52.328;20.878;2023-04-06T12:19:20;3.70;99.90
18252;DHT22;26917;52.328;20.878;2023-04-06T12:21:52;3.70;99.90
18252;DHT22;26917;52.328;20.878;2023-04-06T12:24:21;3.80;99.90
18252;DHT22;26917;52.328;20.878;2023-04-06T12:26:51;3.80;99.90
18252;DHT22;26917;52.328;20.878;2023-04-06T12:29:36;3.80;99.90
18252;DHT22;26917;52.328;20.878;2023-04-06T12:32:04;3.80;99.90
18252;DHT22;26917;52.328;20.878;2023-04-06T12:34:33;3.80;99.90
18252;DHT22;26917;52.328;20.878;2023-04-06T12:37:02;3.80;99.90
18252;DHT22;26917;52.328;20.878;2023-04-06T12:39:30;3.80;99.90
18252;DHT22;26917;52.328;20.878;2023-04-06T12:42:00;3.80;99.90
18252;DHT22;26917;52.328;20.878;2023-04-06T12:44:31;3.80;99.90
18252;DHT22;26917;52.328;20.878;2023-04-06T12:47:00;3.80;99.90
18252;DHT22;26917;52.328;20.878;2023-04-06T12:49:29;3.80;99.90
18252;DHT22;26917;52.328;20.878;2023-04-06T12:51:58;3.80;99.90
18252;DHT22;26917;52.328;20.878;2023-04-06T12:54:27;3.80;99.90
18252;DHT22;26917;52.328;20.878;2023-04-06T12:56:56;3.80;99.90
18252;DHT22;26917;52.328;20.878;2023-04-06T12:59:26;3.80;99.90
18252;DHT22;26917;52.328;20.878;2023-04-06T13:02:01;3.80;99.90
18252;DHT22;26917;52.328;20.878;2023-04-06T13:04:31;3.80;99.90
18252;DHT22;26917;52.328;20.878;2023-04-06T13:07:00;3.80;99.90
18252;DHT22;26917;52.328;20.878;2023-04-06T13:09:28;3.80;99.90
18252;DHT22;26917;52.328;20.878;2023-04-06T13:11:57;3.80;99.90
18252;DHT22;26917;52.328;20.878;2023-04-06T13:14:26;3.80;99.90
18252;DHT22;26917;52.328;20.878;2023-04-06T13:16:55;3.80;99.90
18252;DHT22;26917;52.328;20.878;2023-04-06T13:19:24;3.90;99.90
18252;DHT22;26917;52.328;20.878;2023-04-06T13:21:53;3.90;99.90
18252;DHT22;26917;52.328;20.878;2023-04-06T13:24:22;3.90;99.90
18252;DHT22;26917;52.328;20.878;2023-04-06T13:26:50;3.80;99.90
18252;DHT22;26917;52.328;20.878;2023-04-06T13:29:20;3.80;99.90
18252;DHT22;26917;52.328;20.878;2023-04-06T13:31:50;3.70;99.90
18252;DHT22;26917;52.328;20.878;2023-04-06T13:34:21;3.70;99.90
18252;DHT22;26917;52.328;20.878;2023-04-06T13:36:54;3.60;99.90
18252;DHT22;26917;52.328;20.878;2023-04-06T13:39:22;3.70;99.90
18252;DHT22;26917;52.328;20.878;2023-04-06T13:41:53;3.70;99.90
18252;DHT22;26917;52.328;20.878;2023-04-06T13:44:22;3.70;99.90
18252;DHT22;26917;52.328;20.878;2023-04-06T13:46:52;3.70;99.90
18252;DHT22;26917;52.328;20.878;2023-04-06T13:49:21;3.70;99.90
18252;DHT22;26917;52.328;20.878;2023-04-06T13:51:50;3.70;99.90
18252;DHT22;26917;52.328;20.878;2023-04-06T13:54:19;3.60;99.90
18252;DHT22;26917;52.328;20.878;2023-04-06T13:56:47;3.70;99.90
18252;DHT22;26917;52.328;20.878;2023-04-06T13:59:16;3.60;99.90
18252;DHT22;26917;52.328;20.878;2023-04-06T14:01:44;3.60;99.90
18252;DHT22;26917;52.328;20.878;2023-04-06T14:04:14;3.70;99.90
18252;DHT22;26917;52.328;20.878;2023-04-06T14:06:44;3.70;99.90
18252;DHT22;26917;52.328;20.878;2023-04-06T14:09:14;3.80;99.90
18252;DHT22;26917;52.328;20.878;2023-04-06T14:11:43;3.60;99.90
18252;DHT22;26917;52.328;20.878;2023-04-06T14:14:12;3.70;99.90
18252;DHT22;26917;52.328;20.878;2023-04-06T14:16:41;3.60;99.90
18252;DHT22;26917;52.328;20.878;2023-04-06T14:19:11;4.00;99.90
18252;DHT22;26917;52.328;20.878;2023-04-06T14:21:41;3.60;99.90
18252;DHT22;26917;52.328;20.878;2023-04-06T14:24:10;3.60;99.90
18252;DHT22;26917;52.328;20.878;2023-04-06T14:26:39;3.60;99.90
18252;DHT22;26917;52.328;20.878;2023-04-06T14:29:09;3.60;99.90
18252;DHT22;26917;52.328;20.878;2023-04-06T14:31:38;3.50;99.90
18252;DHT22;26917;52.328;20.878;2023-04-06T14:34:07;3.40;99.90
18252;DHT22;26917;52.328;20.878;2023-04-06T14:36:38;3.30;99.90
18252;DHT22;26917;52.328;20.878;2023-04-06T14:39:08;3.90;99.90
18252;DHT22;26917;52.328;20.878;2023-04-06T14:41:37;3.30;99.90
18252;DHT22;26917;52.328;20.878;2023-04-06T14:44:06;3.50;99.90
18252;DHT22;26917;52.328;20.878;2023-04-06T14:46:39;3.30;99.90
18252;DHT22;26917;52.328;20.878;2023-04-06T14:49:07;3.40;99.90
18252;DHT22;26917;52.328;20.878;2023-04-06T14:51:44;3.30;99.90
18252;DHT22;26917;52.328;20.878;2023-04-06T14:54:14;3.40;99.90
18252;DHT22;26917;52.328;20.878;2023-04-06T14:56:46;3.70;99.90
18252;DHT22;26917;52.328;20.878;2023-04-06T14:59:16;3.20;99.90
18252;DHT22;26917;52.328;20.878;2023-04-06T15:01:51;3.40;99.90
18252;DHT22;26917;52.328;20.878;2023-04-06T15:04:22;3.40;99.90
18252;DHT22;26917;52.328;20.878;2023-04-06T15:07:10;3.30;99.90
18252;DHT22;26917;52.328;20.878;2023-04-06T15:09:46;3.30;99.90
18252;DHT22;26917;52.328;20.878;2023-04-06T15:12:16;3.30;99.90
18252;DHT22;26917;52.328;20.878;2023-04-06T15:14:50;3.30;99.90
18252;DHT22;26917;52.328;20.878;2023-04-06T15:17:39;3.20;99.90
18252;DHT22;26917;52.328;20.878;2023-04-06T15:20:11;3.40;99.90
18252;DHT22;26917;52.328;20.878;2023-04-06T15:22:39;3.80;99.90
18252;DHT22;26917;52.328;20.878;2023-04-06T15:25:09;3.40;99.90
18252;DHT22;26917;52.328;20.878;2023-04-06T15:27:38;3.50;99.90
18252;DHT22;26917;52.328;20.878;2023-04-06T15:30:08;3.20;99.90
18252;DHT22;26917;52.328;20.878;2023-04-06T15:32:38;3.20;99.90
18252;DHT22;26917;52.328;20.878;2023-04-06T15:35:11;3.20;99.90
18252;DHT22;26917;52.328;20.878;2023-04-06T15:37:40;3.30;99.90
18252;DHT22;26917;52.328;20.878;2023-04-06T15:40:11;3.30;99.90
18252;DHT22;26917;52.328;20.878;2023-04-06T15:43:00;3.30;99.90
18252;DHT22;26917;52.328;20.878;2023-04-06T15:45:29;4.00;99.90
18252;DHT22;26917;52.328;20.878;2023-04-06T15:47:57;3.20;99.90
18252;DHT22;26917;52.328;20.878;2023-04-06T15:50:27;3.30;99.90
18252;DHT22;26917;52.328;20.878;2023-04-06T15:52:56;3.20;99.90
18252;DHT22;26917;52.328;20.878;2023-04-06T15:55:29;3.30;99.90